Time;durP1;ratioP1;P1;durP2;ratioP2;P2;SDS_P1;SDS_P2;PMS_P1;PMS_P2;Temp;Humidity;BMP_temperature;BMP_pressure;BME280_temperature;BME280_humidity;BME280_pressure;Samples;Min_cycle;Max_cycle;Signal;HPM_P1;HPM_P2
2021/09/24 00:02:14;;;;;;;;;0.67;0.00;;;;;18.55;53.62;97532.03;4823181;28;102149;-84
2021/09/24 00:04:41;;;;;;;;;5.00;4.00;;;;;18.55;53.99;97523.81;4824837;28;105423;-83
2021/09/24 00:07:08;;;;;;;;;4.00;2.67;;;;;18.54;53.47;97523.00;4810968;28;102354;-84
2021/09/24 00:09:35;;;;;;;;;4.00;4.00;;;;;18.55;54.32;97516.41;4838486;28;104128;-83
2021/09/24 00:12:02;;;;;;;;;3.33;3.00;;;;;18.54;54.12;97523.00;4855525;28;102577;-83
2021/09/24 00:14:29;;;;;;;;;3.67;3.67;;;;;18.55;53.81;97518.34;4852871;28;102406;-84
2021/09/24 00:16:56;;;;;;;;;4.00;3.00;;;;;18.54;53.61;97513.97;4843553;28;103023;-83
2021/09/24 00:19:23;;;;;;;;;5.00;4.33;;;;;18.54;53.55;97523.00;4854465;28;111322;-84
2021/09/24 00:21:51;;;;;;;;;5.00;3.67;;;;;18.54;54.13;97523.00;4855647;28;102310;-83
2021/09/24 00:24:18;;;;;;;;;5.00;3.00;;;;;18.53;53.54;97521.34;4863554;28;102419;-84
2021/09/24 00:26:45;;;;;;;;;3.00;2.00;;;;;18.52;53.25;97514.19;4851457;28;102662;-83
2021/09/24 00:29:13;;;;;;;;;5.00;4.00;;;;;18.52;54.09;97518.84;4859654;28;104398;-84
2021/09/24 00:31:40;;;;;;;;;5.00;3.33;;;;;18.51;53.94;97523.50;4856888;28;102645;-83
2021/09/24 00:34:07;;;;;;;;;4.33;4.00;;;;;18.51;54.14;97520.75;4847593;28;102848;-84
2021/09/24 00:36:33;;;;;;;;;6.00;4.00;;;;;18.51;53.70;97518.03;4858091;28;102757;-83
2021/09/24 00:39:00;;;;;;;;;3.00;3.00;;;;;18.51;53.54;97514.47;4857590;28;104102;-84
2021/09/24 00:41:27;;;;;;;;;4.00;4.00;;;;;18.50;53.98;97516.41;4855550;28;102953;-84
2021/09/24 00:43:54;;;;;;;;;3.67;3.67;;;;;18.50;53.91;97516.41;4851735;28;102377;-83
2021/09/24 00:46:21;;;;;;;;;4.00;4.00;;;;;18.51;53.90;97511.72;4849130;28;102614;-83
2021/09/24 00:48:48;;;;;;;;;4.00;3.00;;;;;18.51;54.09;97518.03;4854888;28;104151;-84
2021/09/24 00:51:15;;;;;;;;;3.00;3.00;;;;;18.49;53.87;97514.75;4849843;28;102508;-83
2021/09/24 00:53:42;;;;;;;;;3.00;3.00;;;;;18.49;53.95;97517.50;4847194;28;102542;-83
2021/09/24 00:56:09;;;;;;;;;5.00;4.33;;;;;18.49;53.61;97520.25;4840734;28;104864;-84
2021/09/24 00:58:36;;;;;;;;;4.67;4.00;;;;;18.49;53.51;97517.50;4827730;28;104346;-84
2021/09/24 01:01:03;;;;;;;;;5.67;4.00;;;;;18.50;53.53;97521.06;4820758;28;103993;-83
2021/09/24 01:03:30;;;;;;;;;3.33;2.67;;;;;18.49;53.43;97517.50;4807330;28;103659;-84
2021/09/24 01:05:57;;;;;;;;;4.00;3.00;;;;;18.49;53.88;97509.28;4833606;28;102677;-83
2021/09/24 01:08:25;;;;;;;;;4.67;4.00;;;;;18.49;53.70;97524.88;4815999;28;104063;-84
2021/09/24 01:10:52;;;;;;;;;1.67;1.67;;;;;18.49;53.90;97525.72;4822742;28;103638;-84
2021/09/24 01:13:19;;;;;;;;;5.00;4.33;;;;;18.49;53.89;97514.75;4830842;28;102150;-84
2021/09/24 01:15:46;;;;;;;;;3.33;2.00;;;;;18.49;54.07;97505.72;4834713;28;105166;-84
2021/09/24 01:18:13;;;;;;;;;3.00;3.00;;;;;18.47;53.93;97510.66;4837277;28;104143;-84
2021/09/24 01:20:40;;;;;;;;;3.00;3.00;;;;;18.45;53.57;97510.94;4831755;28;102384;-84
2021/09/24 01:23:07;;;;;;;;;2.00;2.00;;;;;18.47;53.83;97511.47;4827672;28;103471;-84
2021/09/24 01:25:34;;;;;;;;;3.00;2.33;;;;;18.47;53.47;97496.97;4820969;28;102289;-84
2021/09/24 01:28:02;;;;;;;;;5.33;3.67;;;;;18.46;53.49;97493.41;4835713;28;104189;-84
2021/09/24 01:30:29;;;;;;;;;2.00;1.00;;;;;18.47;53.85;97505.16;4832497;28;106045;-84
2021/09/24 01:32:56;;;;;;;;;3.00;3.00;;;;;18.46;53.46;97504.34;4810668;28;102246;-84
2021/09/24 01:35:23;;;;;;;;;2.00;2.00;;;;;18.45;53.85;97502.72;4835859;28;103698;-84
2021/09/24 01:37:50;;;;;;;;;3.00;2.33;;;;;18.46;53.85;97507.09;4822211;28;105136;-84
2021/09/24 01:40:18;;;;;;;;;3.00;2.67;;;;;18.46;53.83;97511.78;4837416;28;102297;-84
2021/09/24 01:42:45;;;;;;;;;0.00;0.00;;;;;18.46;53.79;97519.97;4830379;28;103113;-83
2021/09/24 01:45:12;;;;;;;;;4.00;3.00;;;;;18.45;53.46;97518.34;4832125;28;102659;-84
2021/09/24 01:47:39;;;;;;;;;5.00;3.67;;;;;18.45;53.51;97535.59;4829679;28;104127;-83
2021/09/24 01:50:07;;;;;;;;;2.33;2.00;;;;;18.46;53.23;97555.56;4810160;28;105111;-84
2021/09/24 01:52:33;;;;;;;;;3.00;3.00;;;;;18.45;53.46;97560.22;4840239;28;102560;-84
2021/09/24 01:55:01;;;;;;;;;4.00;3.67;;;;;18.45;53.33;97575.81;4828230;28;102623;-84
2021/09/24 01:57:27;;;;;;;;;3.33;2.67;;;;;18.44;53.38;97577.72;4832682;28;104218;-84
2021/09/24 01:59:54;;;;;;;;;3.33;3.00;;;;;18.44;53.85;97583.22;4845239;28;102201;-84
2021/09/24 02:02:21;;;;;;;;;3.00;2.67;;;;;18.44;53.65;97596.91;4832179;28;102969;-84
2021/09/24 02:04:52;;;;;;;;;2.33;2.33;;;;;18.44;53.15;97599.63;4830623;28;102811;-84
2021/09/24 02:07:19;;;;;;;;;3.00;2.00;;;;;18.43;53.92;97592.50;4841413;28;106589;-84
2021/09/24 02:09:46;;;;;;;;;5.00;3.00;;;;;18.44;53.83;97593.34;4840058;28;102362;-84
2021/09/24 02:12:12;;;;;;;;;3.00;3.00;;;;;18.44;53.87;97599.63;4840800;28;103348;-84
2021/09/24 02:14:39;;;;;;;;;3.67;2.00;;;;;18.43;54.00;97600.72;4848642;28;102285;-84
2021/09/24 02:17:06;;;;;;;;;3.00;2.33;;;;;18.44;53.42;97612.50;4834158;28;104051;-84
2021/09/24 02:19:33;;;;;;;;;2.00;2.00;;;;;18.43;53.45;97608.94;4837265;28;103152;-84
2021/09/24 02:22:01;;;;;;;;;3.33;2.33;;;;;18.43;53.54;97608.94;4842689;28;102372;-84
2021/09/24 02:24:27;;;;;;;;;3.67;3.00;;;;;18.43;53.48;97617.16;4833799;28;102549;-84
2021/09/24 02:26:55;;;;;;;;;2.67;2.00;;;;;18.44;53.42;97615.22;4833470;28;104137;-84
2021/09/24 02:29:23;;;;;;;;;2.00;1.00;;;;;18.43;53.52;97625.34;4834478;28;102518;-84
2021/09/24 02:31:49;;;;;;;;;1.00;1.00;;;;;18.42;53.63;97623.72;4828117;28;111246;-84
2021/09/24 02:34:17;;;;;;;;;2.00;2.00;;;;;18.43;53.69;97636.31;4819590;28;102270;-84
2021/09/24 02:36:44;;;;;;;;;2.67;2.00;;;;;18.42;53.76;97642.88;4841996;28;103889;-84
2021/09/24 02:39:11;;;;;;;;;1.00;0.00;;;;;18.42;53.57;97642.03;4841332;28;102156;-84
2021/09/24 02:41:38;;;;;;;;;3.00;3.00;;;;;18.42;53.70;97648.34;4839237;28;102157;-84
2021/09/24 02:44:06;;;;;;;;;1.00;1.00;;;;;18.42;53.13;97650.25;4842012;28;103769;-84
2021/09/24 02:46:33;;;;;;;;;3.00;1.33;;;;;18.41;53.65;97663.16;4834546;28;108780;-84
2021/09/24 02:49:00;;;;;;;;;2.00;2.00;;;;;18.41;53.52;97660.41;4840776;28;104118;-84
2021/09/24 02:51:27;;;;;;;;;2.67;2.00;;;;;18.42;53.66;97661.22;4839741;28;102296;-84
2021/09/24 02:53:54;;;;;;;;;2.00;2.00;;;;;18.40;53.67;97652.47;4838910;28;102741;-84
2021/09/24 02:56:21;;;;;;;;;3.00;2.33;;;;;18.40;53.33;97669.72;4837781;28;104384;-83
2021/09/24 02:58:48;;;;;;;;;2.00;2.00;;;;;18.40;53.34;97668.88;4810312;28;103132;-83
2021/09/24 03:01:15;;;;;;;;;1.67;1.33;;;;;18.42;53.36;97677.63;4852681;28;102896;-84
2021/09/24 03:03:42;;;;;;;;;2.67;2.00;;;;;18.40;53.65;97680.66;4845617;28;102602;-84
2021/09/24 03:06:09;;;;;;;;;1.33;1.00;;;;;18.39;53.99;97681.75;4833748;28;104068;-83
2021/09/24 03:08:36;;;;;;;;;2.00;1.67;;;;;18.41;53.34;97682.31;4835933;28;102541;-83
2021/09/24 03:11:03;;;;;;;;;3.00;3.00;;;;;18.40;53.14;97688.03;4842590;28;102746;-83
2021/09/24 03:13:30;;;;;;;;;3.00;2.00;;;;;18.39;53.26;97683.66;4836262;28;102756;-84
2021/09/24 03:15:58;;;;;;;;;2.00;1.67;;;;;18.39;53.89;97681.75;4832693;28;104169;-83
2021/09/24 03:18:25;;;;;;;;;3.00;2.00;;;;;18.39;53.82;97684.50;4833978;28;104765;-84
2021/09/24 03:20:52;;;;;;;;;2.00;2.00;;;;;18.37;53.72;97686.66;4829187;28;102345;-83
2021/09/24 03:23:20;;;;;;;;;1.00;1.00;;;;;18.38;53.21;97696.53;4842035;28;102266;-83
2021/09/24 03:25:47;;;;;;;;;3.00;3.00;;;;;18.38;53.57;97687.50;4837581;28;103881;-84
2021/09/24 03:28:14;;;;;;;;;3.00;3.00;;;;;18.38;53.62;97692.97;4839294;28;102570;-84
2021/09/24 03:30:41;;;;;;;;;2.00;1.67;;;;;18.36;53.40;97690.50;4839665;28;102679;-84
2021/09/24 03:33:08;;;;;;;;;2.00;2.00;;;;;18.37;53.45;97699.56;4840247;28;104407;-84
2021/09/24 03:35:35;;;;;;;;;2.00;1.67;;;;;18.36;53.58;97693.25;4834665;28;103727;-84
2021/09/24 03:38:02;;;;;;;;;2.00;1.00;;;;;18.36;53.32;97695.16;4850289;28;102400;-83
2021/09/24 03:40:29;;;;;;;;;1.33;1.33;;;;;18.36;53.99;97701.47;4834159;28;102457;-83
2021/09/24 03:42:58;;;;;;;;;1.67;1.67;;;;;18.35;53.50;97707.19;4840016;28;103203;-84
2021/09/24 03:45:25;;;;;;;;;4.00;1.00;;;;;18.37;52.99;97710.50;4842743;28;104265;-83
2021/09/24 03:47:52;;;;;;;;;2.00;1.67;;;;;18.36;53.35;97706.94;4830936;28;102719;-84
2021/09/24 03:50:20;;;;;;;;;2.33;2.33;;;;;18.36;53.46;97700.63;4840053;28;102837;-84
2021/09/24 03:52:47;;;;;;;;;2.00;2.00;;;;;18.35;53.11;97710.75;4844889;28;102897;-83
2021/09/24 03:55:14;;;;;;;;;1.67;1.33;;;;;18.35;53.68;97710.75;4836144;28;104315;-84
2021/09/24 03:57:41;;;;;;;;;4.33;2.00;;;;;18.35;53.11;97716.25;4826140;28;102132;-83
2021/09/24 04:00:08;;;;;;;;;1.67;1.67;;;;;18.35;53.12;97727.19;4835688;28;102649;-84
2021/09/24 04:02:35;;;;;;;;;3.00;2.00;;;;;18.34;53.33;97731.00;4841715;28;104247;-83
2021/09/24 04:05:03;;;;;;;;;2.00;2.00;;;;;18.34;53.15;97730.19;4829130;28;103924;-83
2021/09/24 04:07:30;;;;;;;;;2.00;2.00;;;;;18.34;53.06;97721.97;4839667;28;102757;-84
2021/09/24 04:09:57;;;;;;;;;1.67;1.00;;;;;18.34;53.65;97736.47;4841278;28;102131;-84
2021/09/24 04:12:23;;;;;;;;;1.00;1.00;;;;;18.34;53.39;97735.66;4850054;28;102239;-84
2021/09/24 04:14:51;;;;;;;;;2.00;2.00;;;;;18.33;53.24;97734.84;4829781;28;104754;-84
2021/09/24 04:17:19;;;;;;;;;2.00;2.00;;;;;18.33;53.14;97740.31;4847041;28;102198;-84
2021/09/24 04:19:46;;;;;;;;;1.00;1.00;;;;;18.33;53.76;97751.25;4850648;28;102582;-84
2021/09/24 04:22:13;;;;;;;;;2.00;2.00;;;;;18.33;52.96;97759.47;4834582;28;102590;-83
2021/09/24 04:24:40;;;;;;;;;2.67;1.00;;;;;18.33;53.49;97762.19;4839146;28;105451;-84
2021/09/24 04:27:07;;;;;;;;;1.33;1.33;;;;;18.33;53.77;97753.19;4827402;28;102698;-84
2021/09/24 04:29:34;;;;;;;;;1.67;1.00;;;;;18.34;52.95;97766.59;4829736;28;103368;-84
2021/09/24 04:32:01;;;;;;;;;2.00;1.00;;;;;18.33;53.04;97761.41;4843853;28;102235;-84
2021/09/24 04:34:28;;;;;;;;;2.00;2.00;;;;;18.33;52.97;97761.41;4843067;28;103923;-84
2021/09/24 04:36:55;;;;;;;;;1.00;1.00;;;;;18.33;53.07;97755.94;4838070;28;102257;-84
2021/09/24 04:39:21;;;;;;;;;2.00;2.00;;;;;18.32;53.57;97755.09;4842044;28;102203;-84
2021/09/24 04:41:48;;;;;;;;;0.33;0.33;;;;;18.32;53.46;97760.59;4849944;28;104415;-84
2021/09/24 04:44:15;;;;;;;;;2.00;2.00;;;;;18.33;53.15;97761.41;4839619;28;103769;-83
2021/09/24 04:46:46;;;;;;;;;3.00;1.00;;;;;18.32;53.53;97757.84;4846415;28;102552;-84
2021/09/24 04:49:13;;;;;;;;;1.00;1.00;;;;;18.32;53.53;97768.78;4843575;28;102339;-84
2021/09/24 04:51:44;;;;;;;;;2.00;2.00;;;;;18.31;53.18;97767.16;4817570;28;102496;-84
2021/09/24 04:54:11;;;;;;;;;2.00;1.00;;;;;18.31;53.47;97766.31;4855401;28;105632;-84
2021/09/24 04:56:38;;;;;;;;;1.00;1.00;;;;;18.32;53.71;97770.69;4842856;28;102241;-83
2021/09/24 04:59:05;;;;;;;;;2.00;1.00;;;;;18.31;53.71;97758.09;4825110;28;102230;-84
2021/09/24 05:01:32;;;;;;;;;2.00;1.00;;;;;18.31;52.97;97755.38;4847363;28;102521;-84
2021/09/24 05:03:59;;;;;;;;;1.00;1.00;;;;;18.31;53.42;97772.63;4840737;28;104230;-84
2021/09/24 05:06:26;;;;;;;;;2.00;2.00;;;;;18.31;53.23;97769.88;4841568;28;102684;-84
2021/09/24 05:08:52;;;;;;;;;1.33;0.33;;;;;18.31;53.27;97769.06;4853144;28;102210;-83
2021/09/24 05:11:19;;;;;;;;;1.00;0.00;;;;;18.31;53.22;97790.94;4840874;28;102514;-83
2021/09/24 05:13:46;;;;;;;;;1.00;1.00;;;;;18.31;52.92;97791.78;4854677;28;104132;-84
2021/09/24 05:16:16;;;;;;;;;1.00;1.00;;;;;18.31;53.61;97799.97;4862819;28;102546;-84
2021/09/24 05:18:43;;;;;;;;;1.67;1.00;;;;;18.30;53.14;97792.84;4858717;28;102647;-84
2021/09/24 05:21:10;;;;;;;;;0.67;0.67;;;;;18.31;52.81;97801.91;4861135;28;102833;-83
2021/09/24 05:23:37;;;;;;;;;1.33;1.00;;;;;18.30;53.19;97803.81;4864009;28;104124;-83
2021/09/24 05:26:04;;;;;;;;;1.00;1.00;;;;;18.31;53.15;97804.63;4851936;28;104448;-83
2021/09/24 05:28:31;;;;;;;;;0.00;0.00;;;;;18.30;53.67;97809.28;4859597;28;102803;-83
2021/09/24 05:30:58;;;;;;;;;1.00;1.00;;;;;18.29;52.94;97805.72;4860702;28;102489;-83
2021/09/24 05:33:24;;;;;;;;;1.00;1.00;;;;;18.29;53.59;97810.38;4856756;28;104073;-83
2021/09/24 05:35:54;;;;;;;;;1.00;1.00;;;;;18.29;53.51;97816.66;4861865;28;102294;-83
2021/09/24 05:38:21;;;;;;;;;1.00;1.00;;;;;18.28;53.50;97814.22;4864335;28;102424;-83
2021/09/24 05:40:48;;;;;;;;;1.67;1.00;;;;;18.29;53.46;97821.31;4863065;28;104377;-83
2021/09/24 05:43:15;;;;;;;;;2.00;2.00;;;;;18.28;53.42;97817.75;4863870;28;104034;-83
2021/09/24 05:45:42;;;;;;;;;0.67;0.67;;;;;18.28;53.47;97822.44;4858665;28;102677;-84
2021/09/24 05:48:09;;;;;;;;;1.00;1.00;;;;;18.28;52.98;97819.69;4856952;28;102757;-84
2021/09/24 05:50:36;;;;;;;;;1.00;1.00;;;;;18.28;52.97;97820.50;4860927;28;102648;-84
2021/09/24 05:53:02;;;;;;;;;1.00;1.00;;;;;18.28;53.75;97836.91;4860646;28;104059;-84
2021/09/24 05:55:30;;;;;;;;;2.00;1.00;;;;;18.28;53.21;97836.13;4861385;28;104029;-84
2021/09/24 05:57:57;;;;;;;;;1.00;1.00;;;;;18.28;53.06;97842.38;4860047;28;102639;-84
2021/09/24 06:00:24;;;;;;;;;1.00;1.00;;;;;18.29;53.36;97843.22;4856988;28;102682;-84
2021/09/24 06:02:51;;;;;;;;;0.67;0.67;;;;;18.28;53.20;97838.84;4861449;28;104038;-85
2021/09/24 06:05:18;;;;;;;;;2.67;1.00;;;;;18.26;53.48;97830.91;4847700;28;102470;-84
2021/09/24 06:07:45;;;;;;;;;1.00;1.00;;;;;18.28;53.37;97847.06;4859582;28;104387;-84
2021/09/24 06:10:13;;;;;;;;;0.33;0.33;;;;;18.28;52.93;97850.59;4843968;28;102874;-83
2021/09/24 06:12:40;;;;;;;;;1.00;1.00;;;;;18.28;53.19;97855.28;4863275;28;104022;-83
2021/09/24 06:15:08;;;;;;;;;1.00;1.00;;;;;18.28;53.74;97864.28;4858455;28;102498;-84
2021/09/24 06:17:35;;;;;;;;;0.00;0.00;;;;;18.28;52.91;97860.75;4865876;28;102138;-84
2021/09/24 06:20:02;;;;;;;;;1.00;0.33;;;;;18.27;53.45;97867.31;4866550;28;102701;-83
2021/09/24 06:22:29;;;;;;;;;1.00;1.00;;;;;18.27;53.26;97868.13;4845618;28;104072;-83
2021/09/24 06:24:56;;;;;;;;;0.00;0.00;;;;;18.26;52.91;97877.41;4850850;28;102212;-84
2021/09/24 06:27:22;;;;;;;;;1.00;1.00;;;;;18.27;53.41;97883.72;4859273;28;102582;-84
2021/09/24 06:29:51;;;;;;;;;1.00;1.00;;;;;18.27;53.17;97889.19;4840574;28;102541;-84
2021/09/24 06:32:18;;;;;;;;;1.00;1.00;;;;;18.26;53.45;97898.50;4856007;28;105103;-84
2021/09/24 06:34:45;;;;;;;;;2.00;1.00;;;;;18.28;53.49;97885.38;4836511;28;102779;-85
2021/09/24 06:37:12;;;;;;;;;1.00;1.00;;;;;18.28;53.27;97890.84;4837746;28;103502;-84
2021/09/24 06:39:39;;;;;;;;;2.00;1.00;;;;;18.29;53.38;97897.94;4849872;28;102648;-85
2021/09/24 06:42:06;;;;;;;;;1.00;1.00;;;;;18.28;53.25;97886.16;4847877;28;109355;-85
2021/09/24 06:44:33;;;;;;;;;1.00;1.00;;;;;18.28;53.43;97879.91;4859681;28;102678;-85
2021/09/24 06:47:00;;;;;;;;;0.00;0.00;;;;;18.29;53.40;97876.06;4857220;28;102487;-85
2021/09/24 06:49:27;;;;;;;;;1.00;1.00;;;;;18.29;53.16;97878.78;4862331;28;102525;-85
2021/09/24 06:51:55;;;;;;;;;1.00;1.00;;;;;18.29;53.57;97887.81;4846094;28;103844;-85
2021/09/24 06:54:22;;;;;;;;;0.67;0.67;;;;;18.29;53.09;97887.00;4858418;28;102325;-84
2021/09/24 06:56:49;;;;;;;;;1.00;1.00;;;;;18.28;52.96;97880.69;4841978;28;102718;-85
2021/09/24 06:59:15;;;;;;;;;0.00;0.00;;;;;18.28;53.57;97879.91;4864420;28;102642;-84
2021/09/24 07:01:44;;;;;;;;;0.00;0.00;;;;;18.28;53.72;97891.66;4859900;28;104095;-84
2021/09/24 07:04:12;;;;;;;;;1.00;1.00;;;;;18.29;52.75;97887.00;4856596;28;102601;-84
2021/09/24 07:06:39;;;;;;;;;0.33;0.33;;;;;18.28;53.16;97886.16;4865152;28;102448;-84
2021/09/24 07:09:06;;;;;;;;;1.00;1.00;;;;;18.29;53.07;97895.22;4860611;28;103041;-83
2021/09/24 07:11:34;;;;;;;;;1.00;1.00;;;;;18.28;52.98;97894.38;4854344;28;104255;-85
2021/09/24 07:14:01;;;;;;;;;1.00;0.00;;;;;18.27;53.39;97889.19;4862904;28;110712;-84
2021/09/24 07:16:28;;;;;;;;;1.00;1.00;;;;;18.29;53.15;97895.22;4858436;28;107146;-84
2021/09/24 07:18:55;;;;;;;;;0.00;0.00;;;;;18.29;53.05;97909.72;4859642;28;102724;-84
2021/09/24 07:21:22;;;;;;;;;1.00;0.33;;;;;18.30;53.35;97905.06;4857348;28;103019;-84
2021/09/24 07:23:49;;;;;;;;;0.67;0.67;;;;;18.29;53.15;97906.16;4855007;28;102138;-84
2021/09/24 07:26:16;;;;;;;;;0.33;0.33;;;;;18.29;53.48;97917.09;4854243;28;112549;-84
2021/09/24 07:28:42;;;;;;;;;1.00;0.33;;;;;18.29;53.46;97922.56;4850692;28;102465;-84
2021/09/24 07:31:11;;;;;;;;;1.67;1.00;;;;;18.29;53.29;97923.41;4850935;28;104104;-84
2021/09/24 07:33:38;;;;;;;;;1.00;1.00;;;;;18.29;52.83;97926.13;4862082;28;102657;-84
2021/09/24 07:36:04;;;;;;;;;1.00;1.00;;;;;18.29;53.21;97920.66;4849035;28;103524;-84
2021/09/24 07:38:31;;;;;;;;;0.00;0.00;;;;;18.30;53.04;97926.97;4859061;28;104623;-84
2021/09/24 07:40:58;;;;;;;;;0.67;0.67;;;;;18.29;53.34;97930.78;4862944;28;104135;-84
2021/09/24 07:43:25;;;;;;;;;0.00;0.00;;;;;18.31;53.52;97927.78;4859498;28;102524;-84
2021/09/24 07:45:52;;;;;;;;;1.00;1.00;;;;;18.28;52.70;97932.69;4857508;28;102761;-84
2021/09/24 07:48:19;;;;;;;;;1.00;1.00;;;;;18.29;52.98;97937.09;4861213;28;102281;-85
2021/09/24 07:50:46;;;;;;;;;0.00;0.00;;;;;18.27;53.07;97950.22;4854800;28;105209;-85
2021/09/24 07:53:12;;;;;;;;;1.67;1.00;;;;;18.29;53.36;97948.03;4854162;28;102189;-85
2021/09/24 07:55:39;;;;;;;;;1.00;1.00;;;;;18.29;53.17;97941.72;4869434;28;102378;-86
2021/09/24 07:58:08;;;;;;;;;1.00;1.00;;;;;18.29;53.61;97953.50;4845615;28;102196;-85
2021/09/24 08:00:36;;;;;;;;;1.00;1.00;;;;;18.32;54.04;97949.44;4854003;28;104325;-85
2021/09/24 08:03:03;;;;;;;;;0.00;0.00;;;;;18.30;54.88;97959.81;4864931;28;102231;-85
2021/09/24 08:05:31;;;;;;;;;0.67;0.67;;;;;18.33;54.97;97958.47;4840680;28;102764;-85
2021/09/24 08:07:58;;;;;;;;;0.00;0.00;;;;;18.33;55.38;97958.47;4859656;28;103096;-85
2021/09/24 08:10:25;;;;;;;;;1.00;1.00;;;;;18.33;55.34;97959.28;4855109;28;104110;-85
2021/09/24 08:12:52;;;;;;;;;0.00;0.00;;;;;18.33;55.59;97959.28;4844860;28;104855;-85
2021/09/24 08:15:19;;;;;;;;;1.00;1.00;;;;;18.33;55.38;97970.22;4833830;28;102140;-85
2021/09/24 08:17:46;;;;;;;;;1.00;0.00;;;;;18.33;55.75;97974.91;4845382;28;103098;-85
2021/09/24 08:20:13;;;;;;;;;1.00;1.00;;;;;18.33;55.91;97972.94;4833168;28;106886;-85
2021/09/24 08:22:40;;;;;;;;;0.33;0.00;;;;;18.31;55.73;97966.94;4849871;28;102187;-85
2021/09/24 08:25:07;;;;;;;;;1.00;1.00;;;;;18.33;56.07;97970.22;4845371;28;104835;-85
2021/09/24 08:27:34;;;;;;;;;0.67;0.67;;;;;18.31;56.65;97980.63;4834611;28;106945;-85
2021/09/24 08:30:05;;;;;;;;;0.67;0.67;;;;;18.32;56.69;97986.94;4840163;28;104055;-85
2021/09/24 08:32:36;;;;;;;;;0.00;0.00;;;;;18.31;56.29;97986.09;4845293;28;102927;-85
2021/09/24 08:35:08;;;;;;;;;1.00;1.00;;;;;18.31;57.20;97999.78;4823572;28;102723;-85
2021/09/24 08:37:35;;;;;;;;;1.00;0.00;;;;;18.31;57.42;97988.00;4842715;28;102499;-85
2021/09/24 08:40:03;;;;;;;;;0.00;0.00;;;;;18.29;56.89;97986.34;4846509;28;104373;-85
2021/09/24 08:42:30;;;;;;;;;1.00;1.00;;;;;18.30;56.80;98003.59;4835303;28;103538;-85
2021/09/24 08:44:56;;;;;;;;;0.33;0.33;;;;;18.30;57.31;98003.59;4827490;28;105002;-85
2021/09/24 08:47:24;;;;;;;;;2.00;1.00;;;;;18.30;57.85;98003.59;4835966;28;102504;-85
2021/09/24 08:49:52;;;;;;;;;1.00;1.00;;;;;18.31;58.06;98005.25;4834382;28;104171;-85
2021/09/24 08:52:19;;;;;;;;;0.00;0.00;;;;;18.31;58.00;98004.44;4849172;28;102206;-85
2021/09/24 08:54:46;;;;;;;;;1.00;1.00;;;;;18.31;57.53;98007.16;4821080;28;103037;-85
2021/09/24 08:57:15;;;;;;;;;1.00;1.00;;;;;18.30;58.25;97998.13;4840777;28;104343;-84
2021/09/24 08:59:42;;;;;;;;;1.00;1.00;;;;;18.30;58.37;98009.06;4827048;28;104193;-85
2021/09/24 09:02:09;;;;;;;;;2.00;1.00;;;;;18.30;58.14;98006.34;4840426;28;102569;-85
2021/09/24 09:04:44;;;;;;;;;0.00;0.00;;;;;18.31;58.33;98005.25;4839475;28;102400;-85
2021/09/24 09:07:12;;;;;;;;;0.67;0.67;;;;;18.30;58.54;98009.06;4838281;28;102299;-85
2021/09/24 09:09:41;;;;;;;;;1.00;1.00;;;;;18.31;58.64;98013.47;4818407;28;109279;-85
2021/09/24 09:12:23;;;;;;;;;1.00;0.00;;;;;18.31;58.48;98015.38;4836867;28;107863;-85
2021/09/24 09:14:57;;;;;;;;;0.00;0.00;;;;;18.31;58.75;98013.47;4815068;28;102373;-85
2021/09/24 09:17:25;;;;;;;;;1.00;1.00;;;;;18.31;58.86;98021.69;4849048;28;102484;-85
2021/09/24 09:20:19;;;;;;;;;1.00;0.00;;;;;18.31;58.91;98005.25;4842121;28;108187;-85
2021/09/24 09:22:59;;;;;;;;;1.00;1.00;;;;;18.32;59.04;98022.50;4844028;28;102473;-85
2021/09/24 09:25:31;;;;;;;;;0.00;0.00;;;;;18.32;58.74;98015.13;4847822;28;102162;-85
2021/09/24 09:28:00;;;;;;;;;0.00;0.00;;;;;18.32;58.65;98028.81;4828702;28;103603;-85
2021/09/24 09:30:28;;;;;;;;;0.00;0.00;;;;;18.32;58.95;98028.81;4849777;28;104792;-85
2021/09/24 09:33:04;;;;;;;;;1.00;1.00;;;;;18.32;58.43;98031.53;4851577;28;102151;-85
2021/09/24 09:35:40;;;;;;;;;0.00;0.00;;;;;18.33;58.36;98029.63;4844722;28;102962;-85
2021/09/24 09:38:16;;;;;;;;;0.00;0.00;;;;;18.33;59.11;98032.38;4832075;28;102992;-85
2021/09/24 09:40:44;;;;;;;;;0.33;0.33;;;;;18.34;58.71;98039.47;4841244;28;109014;-85
2021/09/24 09:43:30;;;;;;;;;0.00;0.00;;;;;18.34;59.13;98043.03;4845161;28;102515;-85
2021/09/24 09:45:58;;;;;;;;;1.00;1.00;;;;;18.33;58.83;98046.06;4824769;28;103483;-84
2021/09/24 09:48:25;;;;;;;;;1.00;0.00;;;;;18.33;58.86;98049.59;4845985;28;102811;-86
2021/09/24 09:50:52;;;;;;;;;0.67;0.67;;;;;18.33;58.63;98041.38;4844304;28;104126;-86
2021/09/24 09:53:20;;;;;;;;;0.33;0.00;;;;;18.33;58.83;98048.78;4824204;28;102930;-85
2021/09/24 09:55:51;;;;;;;;;1.00;0.00;;;;;18.34;58.79;98044.94;4837518;28;102497;-85
2021/09/24 09:58:20;;;;;;;;;1.00;0.00;;;;;18.33;58.94;98055.06;4831887;28;102308;-85
2021/09/24 10:01:00;;;;;;;;;0.67;0.67;;;;;18.33;59.19;98059.75;4843664;28;104095;-85
2021/09/24 10:03:33;;;;;;;;;1.00;0.00;;;;;18.34;59.12;98061.38;4842424;28;102762;-86
2021/09/24 10:06:03;;;;;;;;;1.00;1.00;;;;;18.35;59.03;98063.03;4835508;28;103433;-85
2021/09/24 10:08:31;;;;;;;;;0.00;0.00;;;;;18.34;59.46;98061.38;4844077;28;102647;-85
2021/09/24 10:11:07;;;;;;;;;0.67;0.67;;;;;18.35;58.75;98069.34;4826758;28;104404;-85
2021/09/24 10:13:36;;;;;;;;;0.67;0.67;;;;;18.36;58.87;98072.91;4837004;28;104325;-85
2021/09/24 10:16:03;;;;;;;;;0.00;0.00;;;;;18.36;58.70;98071.00;4820194;28;102801;-85
2021/09/24 10:18:31;;;;;;;;;0.00;0.00;;;;;18.36;59.57;98073.72;4847450;28;103382;-85
2021/09/24 10:20:58;;;;;;;;;0.00;0.00;;;;;18.37;58.73;98077.28;4818386;28;104072;-86
2021/09/24 10:23:25;;;;;;;;;0.00;0.00;;;;;18.38;59.34;98070.69;4845220;28;102564;-85
2021/09/24 10:25:56;;;;;;;;;0.00;0.00;;;;;18.37;59.63;98078.09;4843750;28;103257;-85
2021/09/24 10:28:27;;;;;;;;;0.00;0.00;;;;;18.38;59.26;98066.06;4822128;28;102609;-85
2021/09/24 10:30:54;;;;;;;;;0.67;0.67;;;;;18.39;59.07;98073.19;4827204;28;104574;-85
2021/09/24 10:33:21;;;;;;;;;0.00;0.00;;;;;18.40;58.82;98084.97;4815163;28;102566;-86
2021/09/24 10:35:50;;;;;;;;;0.00;0.00;;;;;18.40;58.21;98080.31;4804090;28;102989;-86
2021/09/24 10:38:20;;;;;;;;;0.00;0.00;;;;;18.43;58.07;98068.81;4840852;28;102632;-85
2021/09/24 10:41:05;;;;;;;;;1.00;1.00;;;;;18.43;57.60;98082.50;4825522;28;104101;-85
2021/09/24 10:43:48;;;;;;;;;0.00;0.00;;;;;18.46;58.20;98092.94;4816704;28;102493;-85
2021/09/24 10:46:25;;;;;;;;;1.00;0.00;;;;;18.46;58.16;98090.19;4812263;28;102501;-85
2021/09/24 10:49:17;;;;;;;;;0.67;0.67;;;;;18.48;58.55;98084.47;4833442;28;102665;-85
2021/09/24 10:52:06;;;;;;;;;1.00;1.00;;;;;18.48;58.93;98082.56;4834716;28;108817;-87
2021/09/24 10:54:32;;;;;;;;;0.00;0.00;;;;;18.49;58.36;98077.91;4828689;28;102624;-86
2021/09/24 10:57:03;;;;;;;;;1.00;0.67;;;;;18.48;58.76;98082.56;4814806;28;102460;-85
2021/09/24 10:59:31;;;;;;;;;0.00;0.00;;;;;18.48;58.69;98093.50;4821954;28;102190;-85
2021/09/24 11:01:58;;;;;;;;;0.00;0.00;;;;;18.49;59.38;98091.59;4824368;28;104172;-86
2021/09/24 11:04:44;;;;;;;;;0.00;0.00;;;;;18.48;60.05;98088.03;4831629;28;104492;-86
2021/09/24 11:07:31;;;;;;;;;0.00;0.00;;;;;18.48;60.40;98093.50;4832636;28;102513;-86
2021/09/24 11:09:58;;;;;;;;;0.00;0.00;;;;;18.48;60.52;98098.97;4816499;28;103836;-86
2021/09/24 11:12:25;;;;;;;;;0.00;0.00;;;;;18.49;59.94;98113.50;4826969;28;103828;-85
2021/09/24 11:15:10;;;;;;;;;0.00;0.00;;;;;18.49;59.95;98117.06;4848245;28;102849;-85
2021/09/24 11:17:42;;;;;;;;;0.00;0.00;;;;;18.49;60.35;98102.53;4842767;28;102736;-86
2021/09/24 11:20:29;;;;;;;;;1.67;1.67;;;;;18.50;60.48;98104.19;4836460;28;102686;-85
2021/09/24 11:22:55;;;;;;;;;1.00;0.67;;;;;18.50;60.68;98096.00;4855333;28;108893;-85
2021/09/24 11:25:22;;;;;;;;;0.00;0.00;;;;;18.50;61.08;98096.00;4838247;28;102560;-86
2021/09/24 11:27:50;;;;;;;;;0.67;0.67;;;;;18.50;60.85;98091.34;4851735;28;102933;-85
2021/09/24 11:30:24;;;;;;;;;0.00;0.00;;;;;18.51;60.55;98095.69;4855809;28;102503;-86